Hovedside
METAR-TAF:

METAR-TAF

Lufthavner :

Svolvær, Norge

Svolvær lufthavn

breddegrad: 68-15N, lengdegrad: 014-40E, høyde over havet: 0 m

Gjeldene værobservasjon

Denne rapporten ble laget for 32 minutter siden, klokken 13:50 UTC
Vind 20 kt fra Øst
Temperatur -1°C
Luftfuktighet 54%
Trykk 1014 hPa
Sikt 10 km eller mer
ingen skyer under 1500 m og ingen bygeskyer

METAR: ENSH 221350Z 09020KT CAVOK M01/M09 Q1014 RMK WIND 150FT 07029KT

Tid: 15:22 (14:22 UTC)

Varsel

Denne rapporten ble laget for 3 timer og 22 minutter siden, klokken 11:00 UTC
Varsel gyldig fra 22. klokken 12 UTC til 22. klokken 21 UTC
Vind 20 kt fra Øst
Sikt 10 km eller mer
Få skyer i en høyde av 4000 ft

TAF: ENSH 221100Z 2212/2221 09020KT 9999 FEW040

Værobservasjoner og værvarsel for over 4000 flyplasser (METAR- og TAF-rapporter).

Tilgjengelige stasjoner er representert av de røde og gule prikkene på kartet.

Hold musepekeren over prikken for å se navnet på stasjonen.

Klikk så for å se værobservasjoner og -varsler.

For å forandre kartet kan du klikke på den grønne knappen med svart kryss for å zoome inn, på den grønne knappen med strek for å zoome ut, eller på de grønne pilene for å se tilstøtende kart.


METAR-TAF: